createdAt,value
2017-10-06T00:02:35.313Z,66.22
2017-10-06T00:17:35.329Z,65.96
2017-10-06T00:32:34.183Z,66.11
2017-10-06T00:47:36.717Z,66.37
2017-10-06T01:02:36.563Z,66.35
2017-10-06T01:17:35.285Z,66.26
2017-10-06T01:32:34.946Z,67.04
2017-10-06T01:47:35.041Z,67.16
2017-10-06T02:02:34.846Z,67.10
2017-10-06T02:17:35.801Z,67.09
2017-10-06T02:32:35.249Z,68.07
2017-10-06T02:47:35.329Z,68.14
2017-10-06T03:02:35.118Z,67.99
2017-10-06T03:17:39.773Z,68.13
2017-10-06T03:32:35.232Z,68.92
2017-10-06T03:47:37.878Z,69.04
2017-10-06T04:02:34.427Z,69.28
2017-10-06T04:17:38.130Z,69.51
2017-10-06T04:32:34.761Z,69.36
2017-10-06T04:47:34.716Z,69.29
2017-10-06T05:02:34.844Z,68.98
2017-10-06T05:17:34.599Z,63.48
2017-10-06T05:32:35.080Z,52.91
2017-10-06T05:47:35.074Z,47.10
2017-10-06T06:02:34.943Z,49.64
2017-10-06T06:17:35.029Z,41.99
2017-10-06T06:32:35.364Z,39.39
2017-10-06T06:47:35.307Z,39.44
2017-10-06T07:02:37.284Z,38.18
2017-10-06T07:17:35.135Z,38.92
2017-10-06T07:32:36.622Z,39.33
2017-10-06T07:47:35.366Z,39.74
2017-10-06T08:02:34.441Z,37.98
2017-10-06T08:17:36.419Z,35.91
2017-10-06T08:32:36.935Z,34.97
2017-10-06T08:47:35.779Z,33.90
2017-10-06T09:02:34.214Z,31.82
2017-10-06T09:17:36.637Z,30.69
2017-10-06T09:32:35.075Z,29.72
2017-10-06T09:47:35.008Z,30.37
2017-10-06T10:02:34.927Z,30.54
2017-10-06T10:17:34.896Z,31.39
2017-10-06T10:32:34.329Z,31.94
2017-10-06T10:47:38.363Z,31.35
2017-10-06T11:02:35.235Z,31.16
2017-10-06T11:17:37.452Z,31.34
2017-10-06T11:32:34.618Z,31.37
2017-10-06T11:47:34.602Z,32.26
2017-10-06T12:02:34.849Z,32.05
2017-10-06T12:17:34.423Z,32.08
2017-10-06T12:32:34.850Z,32.73
2017-10-06T12:47:37.796Z,35.73
2017-10-06T13:02:34.729Z,39.96
2017-10-06T13:17:34.691Z,42.70
2017-10-06T13:32:35.091Z,45.40
2017-10-06T13:47:37.017Z,47.45
2017-10-06T14:02:35.148Z,49.35
2017-10-06T14:17:34.984Z,49.34
2017-10-06T14:32:34.361Z,49.95
2017-10-06T14:47:35.384Z,52.00
2017-10-06T15:02:35.242Z,47.96
2017-10-06T15:17:37.160Z,50.68
2017-10-06T15:32:34.689Z,52.98
2017-10-06T15:47:34.599Z,54.70
2017-10-06T16:02:34.570Z,55.99
2017-10-06T16:17:34.559Z,57.48
2017-10-06T16:32:34.900Z,58.51
2017-10-06T16:47:35.248Z,59.18
2017-10-06T17:02:35.009Z,60.35
2017-10-06T17:17:34.755Z,61.30
2017-10-06T17:32:36.176Z,62.10
2017-10-06T17:47:35.119Z,62.86
2017-10-06T18:02:38.427Z,63.05
2017-10-06T18:17:35.026Z,63.56
2017-10-06T18:32:34.690Z,63.17
2017-10-06T18:47:36.443Z,62.62
2017-10-06T19:02:36.845Z,62.93
2017-10-06T19:17:34.715Z,63.33
2017-10-06T19:32:34.836Z,63.52
2017-10-06T19:47:34.793Z,63.04
2017-10-06T20:02:34.643Z,63.07
2017-10-06T20:17:34.606Z,63.81
2017-10-06T20:32:35.995Z,64.01
2017-10-06T20:47:35.044Z,64.21
2017-10-06T21:02:34.924Z,64.11
2017-10-06T21:17:34.877Z,64.43
2017-10-06T21:32:34.306Z,64.77
2017-10-06T21:47:37.257Z,65.08
2017-10-06T22:02:35.696Z,65.50
2017-10-06T22:17:35.327Z,65.57
2017-10-06T22:32:34.559Z,65.67
2017-10-06T22:47:37.619Z,66.05
2017-10-06T23:02:36.494Z,66.04
2017-10-06T23:17:34.454Z,66.00
2017-10-06T23:32:36.894Z,65.87
2017-10-06T23:47:35.937Z,65.91
